Notice: Undefined index: station in /home3/dimtiris/public_html/webApp/metar/index.php on line 4

Metar

Weather conditions for all airports of the world. Just type the ICAO code of an airport.

LGAV 270620Z 15011KT 8000 FEW015 BKN030 OVC070 16/12 Q1004 NOSIG

STATION LGAV
OBSERVED Fri Mar 27, 00:20 MDT
NOW Fri Mar 27, 00:53 MDT
AGE 33 min ago
WIND SSE at 13 mph
VISIBILITY 13 miles
CONDITIONS
CLOUDS overcast
TEMP 61°F (16°C)
DEWPT 54°F (12°C)
HUMIDITY 77%
BAROMETER 1004 hPa (29.65 in Hg)

Get weather info from other station:

Some ICAO codes to try: